createdAt,value
2023-02-20T00:01:52.934Z,95.99
2023-02-20T00:04:21.220Z,95.54
2023-02-20T00:06:49.856Z,95.99
2023-02-20T00:09:17.862Z,95.87
2023-02-20T00:11:47.089Z,96.85
2023-02-20T00:14:15.946Z,96.85
2023-02-20T00:16:47.538Z,96.76
2023-02-20T00:19:15.595Z,96.84
2023-02-20T00:21:51.899Z,97.18
2023-02-20T00:24:20.950Z,97.27
2023-02-20T00:26:54.245Z,97.30
2023-02-20T00:29:25.646Z,97.56
2023-02-20T00:31:56.415Z,97.76
2023-02-20T00:34:28.488Z,97.77
2023-02-20T00:36:56.931Z,98.02
2023-02-20T00:39:25.373Z,98.05
2023-02-20T00:41:53.789Z,98.35
2023-02-20T00:44:22.158Z,98.21
2023-02-20T00:46:50.532Z,98.24
2023-02-20T00:49:19.209Z,97.79
2023-02-20T00:51:47.800Z,98.19
2023-02-20T00:54:16.745Z,98.56
2023-02-20T00:56:45.179Z,98.30
2023-02-20T00:59:13.629Z,98.26
2023-02-20T01:01:42.296Z,98.58
2023-02-20T01:04:10.814Z,98.45
2023-02-20T01:06:39.307Z,98.83
2023-02-20T01:09:07.738Z,98.60
2023-02-20T01:11:36.258Z,98.82
2023-02-20T01:14:04.919Z,98.80
2023-02-20T01:16:33.439Z,98.97
2023-02-20T01:19:02.008Z,99.15
2023-02-20T01:21:30.201Z,99.14
2023-02-20T01:23:58.602Z,98.96
2023-02-20T01:26:27.113Z,99.01
2023-02-20T01:28:55.567Z,99.10
2023-02-20T01:31:24.168Z,99.20
2023-02-20T01:33:52.360Z,99.06
2023-02-20T01:36:21.113Z,99.12
2023-02-20T01:38:51.064Z,99.21
2023-02-20T01:41:20.256Z,99.24
2023-02-20T01:43:48.622Z,99.19
2023-02-20T01:46:28.967Z,99.42
2023-02-20T01:49:12.446Z,99.03
2023-02-20T01:51:45.929Z,99.16
2023-02-20T01:54:18.312Z,98.97
2023-02-20T01:56:48.848Z,99.00
2023-02-20T01:59:18.403Z,99.38
2023-02-20T02:01:46.593Z,99.28
2023-02-20T02:04:15.215Z,98.67
2023-02-20T02:06:50.513Z,98.70
2023-02-20T02:09:42.926Z,98.18
2023-02-20T02:12:11.659Z,98.39
2023-02-20T02:14:40.204Z,98.51
2023-02-20T02:17:44.477Z,98.17
2023-02-20T02:21:02.054Z,98.00
2023-02-20T02:24:09.869Z,97.78
2023-02-20T02:27:08.340Z,97.75
2023-02-20T02:30:07.852Z,97.91
2023-02-20T02:33:09.957Z,98.11
2023-02-20T02:36:01.891Z,97.97
2023-02-20T02:38:40.435Z,97.61
2023-02-20T02:41:28.484Z,97.85
2023-02-20T02:44:09.358Z,97.77
2023-02-20T02:47:13.441Z,98.06
2023-02-20T02:50:00.717Z,98.07
2023-02-20T02:52:49.544Z,98.24
2023-02-20T02:55:28.462Z,98.31
2023-02-20T02:57:57.083Z,98.59
2023-02-20T03:00:39.517Z,98.54
2023-02-20T03:03:23.161Z,98.47
2023-02-20T03:06:17.588Z,99.04
2023-02-20T03:09:17.019Z,98.89
2023-02-20T03:11:46.790Z,99.16
2023-02-20T03:14:42.464Z,99.33
2023-02-20T03:17:41.508Z,99.33
2023-02-20T03:20:14.940Z,99.54
2023-02-20T03:23:02.611Z,99.81
2023-02-20T03:25:39.279Z,99.64
2023-02-20T03:28:18.843Z,99.78
2023-02-20T03:31:13.750Z,99.62
2023-02-20T03:34:14.996Z,99.65
2023-02-20T03:37:27.590Z,99.31
2023-02-20T03:40:19.034Z,98.77
2023-02-20T03:43:10.368Z,97.92
2023-02-20T03:45:41.446Z,97.82
2023-02-20T03:48:22.049Z,97.01
2023-02-20T03:50:50.528Z,95.24
2023-02-20T03:53:18.104Z,94.41
2023-02-20T03:55:48.722Z,94.67
2023-02-20T03:58:22.704Z,93.78
2023-02-20T04:00:53.879Z,92.17
2023-02-20T04:03:25.470Z,92.30
2023-02-20T04:05:57.072Z,92.05
2023-02-20T04:08:53.047Z,91.49
2023-02-20T04:11:34.366Z,91.49
2023-02-20T04:14:05.189Z,89.45
2023-02-20T04:16:40.231Z,90.17
2023-02-20T04:19:08.815Z,90.34
2023-02-20T04:21:45.358Z,89.84
2023-02-20T04:24:51.704Z,89.08
2023-02-20T04:27:20.489Z,89.67
2023-02-20T04:29:48.961Z,88.27
2023-02-20T04:32:17.528Z,88.24
2023-02-20T04:34:45.668Z,87.85
2023-02-20T04:37:21.128Z,87.95
2023-02-20T04:39:49.354Z,87.68
2023-02-20T04:42:17.887Z,87.53
2023-02-20T04:44:45.959Z,87.02
2023-02-20T04:47:18.508Z,87.50
2023-02-20T04:49:46.641Z,87.98
2023-02-20T04:52:15.329Z,88.19
2023-02-20T04:54:43.570Z,88.71
2023-02-20T04:57:11.653Z,88.79
2023-02-20T04:59:39.803Z,89.22
2023-02-20T05:02:10.050Z,89.24
2023-02-20T05:04:39.003Z,89.83
2023-02-20T05:07:07.448Z,90.43
2023-02-20T05:09:35.606Z,90.88
2023-02-20T05:12:04.019Z,91.16
2023-02-20T05:14:32.478Z,91.65
2023-02-20T05:17:00.942Z,92.02
2023-02-20T05:19:29.383Z,92.17
2023-02-20T05:22:15.093Z,92.17
2023-02-20T05:24:45.886Z,92.09
2023-02-20T05:27:16.181Z,92.45
2023-02-20T05:29:49.782Z,92.40
2023-02-20T05:32:19.516Z,91.13
2023-02-20T05:34:48.287Z,90.82
2023-02-20T05:37:19.498Z,90.82
2023-02-20T05:39:48.736Z,89.72
2023-02-20T05:42:18.287Z,90.16
2023-02-20T05:44:46.552Z,89.31
2023-02-20T05:47:15.087Z,89.01
2023-02-20T05:49:43.178Z,87.37
2023-02-20T05:52:13.317Z,87.96
2023-02-20T05:54:42.725Z,87.52
2023-02-20T05:57:13.667Z,87.53
2023-02-20T05:59:41.823Z,87.54
2023-02-20T06:02:10.034Z,85.94
2023-02-20T06:04:38.137Z,85.87
2023-02-20T06:07:06.601Z,85.00
2023-02-20T06:09:35.299Z,85.76
2023-02-20T06:12:03.416Z,85.68
2023-02-20T06:14:31.872Z,85.10
2023-02-20T06:17:00.335Z,85.57
2023-02-20T06:19:28.427Z,84.66
2023-02-20T06:21:58.757Z,85.04
2023-02-20T06:24:27.309Z,84.83
2023-02-20T06:26:55.892Z,84.43
2023-02-20T06:29:24.063Z,83.64
2023-02-20T06:31:52.246Z,83.53
2023-02-20T06:34:20.890Z,83.89
2023-02-20T06:36:49.020Z,84.09
2023-02-20T06:39:17.320Z,84.42
2023-02-20T06:41:45.535Z,81.79
2023-02-20T06:44:13.999Z,82.43
2023-02-20T06:46:42.622Z,81.76
2023-02-20T06:49:11.714Z,82.90
2023-02-20T06:51:41.414Z,81.72
2023-02-20T06:54:16.572Z,82.12
2023-02-20T06:56:44.722Z,81.45
2023-02-20T06:59:15.045Z,82.26
2023-02-20T07:01:44.889Z,80.40
2023-02-20T07:04:22.956Z,80.41
2023-02-20T07:06:51.426Z,81.52
2023-02-20T07:09:20.293Z,81.38
2023-02-20T07:11:50.632Z,81.10
2023-02-20T07:14:19.145Z,81.03
2023-02-20T07:16:47.212Z,80.86
2023-02-20T07:19:15.779Z,80.59
2023-02-20T07:21:44.164Z,80.63
2023-02-20T07:24:12.715Z,81.30
2023-02-20T07:26:41.286Z,81.40
2023-02-20T07:29:10.186Z,81.02
2023-02-20T07:31:39.209Z,81.44
2023-02-20T07:34:08.254Z,81.10
2023-02-20T07:36:36.553Z,80.50
2023-02-20T07:39:06.898Z,80.57
2023-02-20T07:41:36.155Z,80.12
2023-02-20T07:44:04.950Z,78.13
2023-02-20T07:46:34.354Z,79.02
2023-02-20T07:49:05.114Z,78.66
2023-02-20T07:51:34.344Z,77.64
2023-02-20T07:54:03.229Z,77.34
2023-02-20T07:56:31.607Z,79.90
2023-02-20T07:59:00.952Z,78.52
2023-02-20T08:01:29.447Z,77.81
2023-02-20T08:03:57.577Z,76.90
2023-02-20T08:06:26.053Z,76.83
2023-02-20T08:08:54.102Z,77.90
2023-02-20T08:11:23.973Z,76.05
2023-02-20T08:13:55.603Z,76.55
2023-02-20T08:16:24.681Z,77.28
2023-02-20T08:18:53.265Z,76.71
2023-02-20T08:21:22.033Z,77.10
2023-02-20T08:23:50.391Z,77.73
2023-02-20T08:26:18.531Z,76.77
2023-02-20T08:28:49.538Z,77.06
2023-02-20T08:31:31.116Z,76.50
2023-02-20T08:33:59.983Z,75.22
2023-02-20T08:36:28.607Z,76.83
2023-02-20T08:38:57.400Z,75.94
2023-02-20T08:41:25.900Z,76.14
2023-02-20T08:43:54.505Z,75.70
2023-02-20T08:46:22.860Z,75.63
2023-02-20T08:48:51.306Z,75.25
2023-02-20T08:51:23.010Z,74.89
2023-02-20T08:53:51.081Z,76.02
2023-02-20T08:56:21.600Z,75.90
2023-02-20T08:58:49.707Z,74.75
2023-02-20T09:01:18.152Z,75.44
2023-02-20T09:03:46.593Z,74.38
2023-02-20T09:06:15.296Z,74.52
2023-02-20T09:08:43.800Z,73.52
2023-02-20T09:11:12.220Z,75.14
2023-02-20T09:13:47.899Z,74.41
2023-02-20T09:16:21.849Z,74.25
2023-02-20T09:18:50.279Z,73.48
2023-02-20T09:21:20.603Z,72.59
2023-02-20T09:23:49.040Z,72.31
2023-02-20T09:26:17.561Z,73.31
2023-02-20T09:28:46.179Z,72.34
2023-02-20T09:31:14.217Z,72.53
2023-02-20T09:33:51.402Z,73.09
2023-02-20T09:36:19.906Z,72.99
2023-02-20T09:38:48.495Z,72.37
2023-02-20T09:41:41.329Z,72.23
2023-02-20T09:44:30.882Z,71.03
2023-02-20T09:47:24.042Z,72.02
2023-02-20T09:49:53.447Z,69.85
2023-02-20T09:52:23.621Z,70.42
2023-02-20T09:54:57.244Z,70.91
2023-02-20T09:57:29.300Z,70.72
2023-02-20T10:00:11.162Z,70.86
2023-02-20T10:02:46.464Z,69.89
2023-02-20T10:05:28.471Z,70.10
2023-02-20T10:07:57.207Z,68.11
2023-02-20T10:10:33.573Z,69.02
2023-02-20T10:13:45.453Z,68.32
2023-02-20T10:16:52.008Z,68.09
2023-02-20T10:19:50.700Z,66.95
2023-02-20T10:22:36.444Z,66.85
2023-02-20T10:25:16.614Z,67.88
2023-02-20T10:28:01.479Z,67.02
2023-02-20T10:31:01.480Z,66.80
2023-02-20T10:33:32.741Z,66.16
2023-02-20T10:36:08.645Z,65.41
2023-02-20T10:38:49.846Z,65.72
2023-02-20T10:41:46.373Z,64.77
2023-02-20T10:44:52.788Z,64.48
2023-02-20T10:47:29.608Z,64.57
2023-02-20T10:50:16.214Z,64.60
2023-02-20T10:52:59.146Z,64.63
2023-02-20T10:55:58.069Z,64.98
2023-02-20T10:58:45.168Z,64.16
2023-02-20T11:01:22.430Z,65.49
2023-02-20T11:04:26.874Z,64.54
2023-02-20T11:07:02.896Z,64.47
2023-02-20T11:09:31.067Z,63.73
2023-02-20T11:12:03.484Z,63.53
2023-02-20T11:14:47.109Z,63.89
2023-02-20T11:17:22.442Z,63.85
2023-02-20T11:19:56.276Z,63.40
2023-02-20T11:22:48.695Z,63.04
2023-02-20T11:25:37.875Z,63.33
2023-02-20T11:28:26.273Z,62.94
2023-02-20T11:31:07.107Z,62.43
2023-02-20T11:33:45.582Z,63.05
2023-02-20T11:36:40.571Z,62.19
2023-02-20T11:39:28.282Z,62.06
2023-02-20T11:42:13.591Z,61.28
2023-02-20T11:44:41.757Z,61.27
2023-02-20T11:47:25.754Z,62.31
2023-02-20T11:50:21.832Z,62.00
2023-02-20T11:53:07.498Z,61.46
2023-02-20T11:55:36.687Z,61.80
2023-02-20T11:58:05.205Z,61.41
2023-02-20T12:00:54.051Z,61.61
2023-02-20T12:03:30.099Z,61.67
2023-02-20T12:06:00.174Z,61.45
2023-02-20T12:08:55.936Z,62.02
2023-02-20T12:11:28.555Z,61.76
2023-02-20T12:14:00.849Z,62.66
2023-02-20T12:16:51.000Z,62.52
2023-02-20T12:19:22.577Z,62.16
2023-02-20T12:22:15.176Z,62.66
2023-02-20T12:25:10.639Z,62.44
2023-02-20T12:28:12.443Z,62.30
2023-02-20T12:31:24.131Z,62.25
2023-02-20T12:34:28.646Z,63.37
2023-02-20T12:37:13.166Z,62.82
2023-02-20T12:40:11.434Z,62.72
2023-02-20T12:43:04.683Z,62.38
2023-02-20T12:45:45.025Z,61.97
2023-02-20T12:48:30.802Z,63.38
2023-02-20T12:51:04.813Z,63.66
2023-02-20T12:54:08.961Z,64.36
2023-02-20T12:57:27.359Z,64.26
2023-02-20T13:00:16.630Z,63.90
2023-02-20T13:02:51.595Z,64.48
2023-02-20T13:05:24.882Z,64.19
2023-02-20T13:08:10.964Z,63.21
2023-02-20T13:11:05.302Z,64.68
2023-02-20T13:14:05.822Z,64.59
2023-02-20T13:16:42.667Z,64.45
2023-02-20T13:19:39.251Z,64.22
2023-02-20T13:22:07.994Z,64.36
2023-02-20T13:24:38.651Z,64.63
2023-02-20T13:27:32.412Z,64.50
2023-02-20T13:30:03.073Z,65.33
2023-02-20T13:32:35.534Z,65.11
2023-02-20T13:35:34.700Z,65.06
2023-02-20T13:38:17.448Z,64.57
2023-02-20T13:41:10.135Z,64.36
2023-02-20T13:43:39.546Z,64.62
2023-02-20T13:46:10.565Z,64.23
2023-02-20T13:48:40.598Z,64.41
2023-02-20T13:51:18.073Z,65.37
2023-02-20T13:54:03.098Z,64.94
2023-02-20T13:56:40.493Z,65.65
2023-02-20T13:59:19.838Z,65.64
2023-02-20T14:02:31.037Z,65.90
2023-02-20T14:05:06.898Z,65.06
2023-02-20T14:07:40.488Z,65.61
2023-02-20T14:10:20.344Z,65.27
2023-02-20T14:13:08.595Z,65.54
2023-02-20T14:15:57.312Z,66.01
2023-02-20T14:18:31.395Z,66.44
2023-02-20T14:21:19.258Z,66.69
2023-02-20T14:23:49.332Z,67.25
2023-02-20T14:26:36.090Z,67.12
2023-02-20T14:29:04.358Z,67.16
2023-02-20T14:31:36.639Z,67.19
2023-02-20T14:34:42.917Z,67.47
2023-02-20T14:37:42.684Z,67.57
2023-02-20T14:40:14.413Z,67.74
2023-02-20T14:42:47.218Z,68.07
2023-02-20T14:45:24.337Z,68.12
2023-02-20T14:48:00.925Z,68.64
2023-02-20T14:50:33.449Z,68.97
2023-02-20T14:53:21.834Z,68.76
2023-02-20T14:55:51.865Z,68.84
2023-02-20T14:58:24.343Z,69.09
2023-02-20T15:00:53.582Z,68.92
2023-02-20T15:03:30.137Z,68.91
2023-02-20T15:06:06.518Z,69.35
2023-02-20T15:08:37.792Z,69.99
2023-02-20T15:11:14.768Z,70.19
2023-02-20T15:13:46.750Z,69.66
2023-02-20T15:16:23.667Z,69.60
2023-02-20T15:18:52.341Z,69.98
2023-02-20T15:21:43.388Z,70.36
2023-02-20T15:24:44.100Z,70.82
2023-02-20T15:27:24.885Z,70.78
2023-02-20T15:30:20.160Z,71.21
2023-02-20T15:32:55.757Z,71.23
2023-02-20T15:35:31.509Z,71.84
2023-02-20T15:38:03.903Z,71.98
2023-02-20T15:40:35.391Z,72.22
2023-02-20T15:43:13.229Z,71.91
2023-02-20T15:45:52.006Z,72.17
2023-02-20T15:48:21.308Z,72.64
2023-02-20T15:50:50.901Z,72.64
2023-02-20T15:53:27.931Z,72.51
2023-02-20T15:55:58.531Z,72.71
2023-02-20T15:58:40.003Z,72.99
2023-02-20T16:01:08.140Z,72.79
2023-02-20T16:03:49.545Z,73.03
2023-02-20T16:06:20.955Z,73.13
2023-02-20T16:08:50.600Z,73.13
2023-02-20T16:11:21.036Z,73.19
2023-02-20T16:13:54.919Z,73.14
2023-02-20T16:16:27.121Z,72.70
2023-02-20T16:18:56.162Z,72.61
2023-02-20T16:21:26.069Z,72.29
2023-02-20T16:23:54.981Z,72.43
2023-02-20T16:26:29.021Z,72.83
2023-02-20T16:29:01.537Z,72.92
2023-02-20T16:31:54.670Z,73.09
2023-02-20T16:34:28.462Z,73.64
2023-02-20T16:36:56.735Z,74.00
2023-02-20T16:39:27.305Z,73.90
2023-02-20T16:41:59.021Z,74.30
2023-02-20T16:44:45.754Z,74.19
2023-02-20T16:47:23.293Z,74.51
2023-02-20T16:49:52.893Z,74.71
2023-02-20T16:52:30.247Z,74.86
2023-02-20T16:54:59.633Z,75.77
2023-02-20T16:57:28.329Z,76.38
2023-02-20T17:00:00.222Z,76.01
2023-02-20T17:02:33.531Z,76.86
2023-02-20T17:05:02.565Z,76.70
2023-02-20T17:07:31.451Z,76.69
2023-02-20T17:09:59.688Z,76.48
2023-02-20T17:12:28.567Z,75.78
2023-02-20T17:14:57.884Z,75.34
2023-02-20T17:17:26.304Z,74.20
2023-02-20T17:19:57.383Z,72.89
2023-02-20T17:22:27.306Z,72.26
2023-02-20T17:24:57.608Z,72.35
2023-02-20T17:27:26.672Z,73.07
2023-02-20T17:29:54.797Z,73.34
2023-02-20T17:32:23.046Z,72.63
2023-02-20T17:34:51.502Z,73.03
2023-02-20T17:37:20.086Z,73.49
2023-02-20T17:39:48.500Z,74.26
2023-02-20T17:42:17.909Z,74.07
2023-02-20T17:44:46.489Z,74.13
2023-02-20T17:47:15.082Z,74.17
2023-02-20T17:49:43.259Z,74.21
2023-02-20T17:52:12.365Z,74.59
2023-02-20T17:54:45.246Z,74.42
2023-02-20T17:57:14.128Z,74.64
2023-02-20T17:59:43.420Z,75.26
2023-02-20T18:02:13.676Z,75.16
2023-02-20T18:04:42.745Z,75.05
2023-02-20T18:07:12.513Z,75.79
2023-02-20T18:09:40.867Z,75.75
2023-02-20T18:12:09.672Z,76.10
2023-02-20T18:14:37.781Z,76.17
2023-02-20T18:17:06.333Z,76.56
2023-02-20T18:19:34.817Z,76.48
2023-02-20T18:22:03.393Z,76.24
2023-02-20T18:24:31.880Z,76.59
2023-02-20T18:27:00.360Z,76.31
2023-02-20T18:29:30.058Z,76.69
2023-02-20T18:31:59.106Z,76.39
2023-02-20T18:34:28.638Z,76.68
2023-02-20T18:36:57.289Z,77.53
2023-02-20T18:39:25.994Z,77.60
2023-02-20T18:41:57.904Z,77.94
2023-02-20T18:44:27.753Z,77.76
2023-02-20T18:46:57.438Z,77.94
2023-02-20T18:49:25.525Z,77.83
2023-02-20T18:51:53.597Z,78.14
2023-02-20T18:54:29.981Z,78.33
2023-02-20T18:56:58.064Z,78.70
2023-02-20T18:59:27.375Z,77.68
2023-02-20T19:01:56.948Z,78.28
2023-02-20T19:04:25.905Z,78.00
2023-02-20T19:06:54.520Z,78.27
2023-02-20T19:09:25.371Z,78.63
2023-02-20T19:11:58.426Z,78.43
2023-02-20T19:14:29.336Z,78.74
2023-02-20T19:17:00.731Z,78.63
2023-02-20T19:19:31.589Z,78.75
2023-02-20T19:22:00.958Z,78.70
2023-02-20T19:24:29.461Z,78.25
2023-02-20T19:26:57.908Z,78.73
2023-02-20T19:29:26.531Z,79.15
2023-02-20T19:31:55.025Z,79.10
2023-02-20T19:34:23.212Z,79.72
2023-02-20T19:36:51.821Z,79.22
2023-02-20T19:39:20.337Z,79.37
2023-02-20T19:41:52.118Z,79.90
2023-02-20T19:44:23.537Z,79.77
2023-02-20T19:46:54.905Z,80.10
2023-02-20T19:49:23.977Z,80.16
2023-02-20T19:51:55.920Z,79.91
2023-02-20T19:54:27.738Z,80.04
2023-02-20T19:57:04.217Z,80.24
2023-02-20T19:59:32.649Z,80.56
2023-02-20T20:02:02.476Z,80.65
2023-02-20T20:04:33.740Z,80.66
2023-02-20T20:07:03.975Z,81.28
2023-02-20T20:09:36.992Z,81.17
2023-02-20T20:12:29.028Z,81.63
2023-02-20T20:14:57.731Z,81.94
2023-02-20T20:17:25.923Z,81.82
2023-02-20T20:20:01.166Z,82.40
2023-02-20T20:22:31.399Z,82.16
2023-02-20T20:25:00.464Z,82.56
2023-02-20T20:27:28.790Z,82.58
2023-02-20T20:29:57.367Z,82.84
2023-02-20T20:32:26.023Z,83.23
2023-02-20T20:34:55.630Z,83.01
2023-02-20T20:37:27.580Z,83.03
2023-02-20T20:39:59.036Z,83.02
2023-02-20T20:42:29.755Z,83.11
2023-02-20T20:45:00.523Z,83.41
2023-02-20T20:47:31.609Z,83.55
2023-02-20T20:50:00.993Z,82.99
2023-02-20T20:52:31.089Z,83.23
2023-02-20T20:55:01.552Z,82.75
2023-02-20T20:57:34.635Z,82.71
2023-02-20T21:00:07.255Z,82.46
2023-02-20T21:02:35.598Z,82.51
2023-02-20T21:05:10.129Z,82.60
2023-02-20T21:07:41.968Z,82.05
2023-02-20T21:10:11.137Z,81.87
2023-02-20T21:12:40.497Z,82.52
2023-02-20T21:15:11.205Z,82.04
2023-02-20T21:17:40.731Z,82.13
2023-02-20T21:20:18.578Z,82.25
2023-02-20T21:22:48.514Z,81.97
2023-02-20T21:25:18.049Z,81.95
2023-02-20T21:27:46.312Z,81.80
2023-02-20T21:30:15.526Z,81.35
2023-02-20T21:35:24.649Z,80.61
2023-02-20T21:37:53.370Z,79.69
2023-02-20T21:40:22.374Z,79.88
2023-02-20T21:43:08.356Z,79.53
2023-02-20T21:45:37.577Z,79.20
2023-02-20T21:48:07.013Z,79.14
2023-02-20T21:50:35.454Z,78.23
2023-02-20T21:53:04.288Z,78.58
2023-02-20T21:55:33.209Z,78.34
2023-02-20T21:58:01.803Z,77.91
2023-02-20T22:00:28.956Z,78.09
2023-02-20T22:02:56.390Z,78.38
2023-02-20T22:05:23.455Z,78.19
2023-02-20T22:08:09.208Z,78.54
2023-02-20T22:10:54.837Z,78.88
2023-02-20T22:13:40.713Z,78.76
2023-02-20T22:16:26.761Z,78.44
2023-02-20T22:19:14.362Z,79.30
2023-02-20T22:22:00.822Z,78.58
2023-02-20T22:24:46.905Z,79.11
2023-02-20T22:27:32.817Z,79.28
2023-02-20T22:30:18.779Z,78.95
2023-02-20T22:33:04.857Z,78.68
2023-02-20T22:35:50.739Z,77.94
2023-02-20T22:38:36.707Z,78.22
2023-02-20T22:41:22.668Z,78.93
2023-02-20T22:44:08.536Z,79.24
2023-02-20T22:46:54.571Z,78.81
2023-02-20T22:49:40.429Z,78.35
2023-02-20T22:52:26.400Z,78.80
2023-02-20T22:55:12.346Z,78.95
2023-02-20T22:57:58.915Z,78.08
2023-02-20T23:00:44.855Z,78.58
2023-02-20T23:03:30.656Z,78.55
2023-02-20T23:06:19.645Z,78.37
2023-02-20T23:09:07.716Z,78.61
2023-02-20T23:11:57.837Z,78.85
2023-02-20T23:14:43.624Z,79.28
2023-02-20T23:17:36.148Z,78.53
2023-02-20T23:20:33.056Z,78.77
2023-02-20T23:23:18.897Z,79.03
2023-02-20T23:26:04.753Z,78.81
2023-02-20T23:28:50.495Z,79.85
2023-02-20T23:31:36.773Z,79.75
2023-02-20T23:34:23.749Z,79.96
2023-02-20T23:37:11.802Z,80.50
2023-02-20T23:39:57.638Z,80.24
2023-02-20T23:42:43.624Z,80.71
2023-02-20T23:45:29.826Z,81.25
2023-02-20T23:48:15.810Z,80.69
2023-02-20T23:51:01.866Z,80.68
2023-02-20T23:53:47.779Z,81.01
2023-02-20T23:56:33.727Z,81.05
2023-02-20T23:59:19.664Z,80.98
